Database: COMPET-N - COOP - 3PL - 4PL - CNDOOM

WAD: Doom | Doom 2 | TNT | Plutonia | AV | HR | Scythe | MM | MM2 | Requiem | CE
Category: speed | nmare | max | nm100s | tyson | pacifist | fast | respawn | nomo | misc | built | all
Highscore: ALL | IWAD | PWAD | Country | Continent

< Previous map       Next map >
Remove: wad | map | category | player | allMAP18
MapPlayerTimeDateFilenameCommentsDL
MAP18: MillDrew DeVore1:33.002005-04-24ev18-133.zip - 233
MAP18: MillChris Felix2:02.002003-06-17ev18-202.zip - 171
MAP18: MillJim Leonard2:03.002002-12-23ev18-203.zip - 238
MAP18: MillRadek Pecka2:05.002002-10-02ev18-205.zip - 163
MAP18: MillJim Leonard2:07.002002-09-14ev18-207.zip - 206
MAP18: MillChris Felix2:10.002002-09-14ev18-210.zip - 140
MAP18: MillJim Leonard2:13.002002-09-13ev18-213.zip - 214
MAP18: MillAdolf Vojta2:16.002002-09-26ev18-216.zip - 223
MAP18: MillJim Leonard2:21.002002-08-03ev18-221.zip - 214
MAP18: MillVincent Catalaa2:30.002000-02-27ev18-230.zip - 117
MAP18: MillIlya Britvich2:36.001997-10-22ev18-236.zip - 147
MAP18: MillPeo Sjoblom3:57.001997-04-22ev18-357.zip - 112
MAP18: MillJim Leonard2:29.002002-09-28tn18-229.zip - 265
MAP18: MillJim Leonard3:18.002002-01-15tn18-318.zip - 232
MAP18: MillIlya Britvich3:31.002000-09-15tn18-331.zip - 134
MAP18: MillPeo Sjoblom8:12.001997-04-21ev18-nm.zip - 111
MAP18: MillJim Leonard8:39.002005-02-12ev18-839.zip - 284
MAP18: MillYashar Garibzadeh8:49.002001-02-01ev18-849.zip - 123
MAP18: MillAnthony Soto9:22.002000-12-01ev18-922.zip - 132
MAP18: MillAnthony Soto9:54.002000-11-07ev18-954.zip - 158
MAP18: MillPeo Sjoblom13:12.001997-01-19ev181312.zip - 109
MAP18: MillJim Leonard2:52.002005-08-07es18-252.zip - 298
MAP18: MillJakub Razak3:01.002003-11-02es18-301.zip - 146
MAP18: MillCasey Alvis3:18.002003-01-07es18-318.zip - 140
MAP18: MillJim Leonard3:28.002002-03-28es18-328.zip - 197
MAP18: MillChris Laverdure3:56.002002-02-01es18-356.zip - 117
MAP18: MillJim Leonard5:17.002001-11-25es18-517.zip - 226
MAP18: MillJim Leonard2:06.002002-12-23ep18-206.zip - 266
MAP18: MillJim Leonard2:07.002002-09-29ep18-207.zip - 223
MAP18: MillJim Leonard2:11.002002-09-27ep18-211.zip - 224
MAP18: MillAdolf Vojta2:18.002002-09-26ep18-218.zip - 212
MAP18: MillJim Leonard2:34.002002-08-03ep18-234.zip - 215
MAP18: MillVincent Catalaa2:57.002001-09-05ep18-257.zip - 145
MAP18: MillJim Leonard6:35.002001-08-22ep18-635.zip - 219
MAP18: MillRevved 11:02.002012-07-15ef181102.zip - 269
MAP18: MillPeo Sjoblom18:09.001997-01-15tnt18-gm.zip - 122
MAP18: MillJim Leonard7:44.002002-08-17er18-744.zip - 278
Remove: wad | map | category | player | all